Time;durP1;ratioP1;P1;durP2;ratioP2;P2;SDS_P1;SDS_P2;PMS_P1;PMS_P2;Temp;Humidity;BMP_temperature;BMP_pressure;BME280_temperature;BME280_humidity;BME280_pressure;Samples;Min_cycle;Max_cycle;Signal;HPM_P1;HPM_P2
2024/03/09 00:02:22;;;;;;;2.90;1.48;;;12.80;99.90;;;;;;7384866;19;20003;-78
2024/03/09 00:04:55;;;;;;;3.05;1.70;;;12.80;99.90;;;;;;7383946;19;20014;-79
2024/03/09 00:07:24;;;;;;;2.40;1.35;;;12.80;99.90;;;;;;7383241;19;20252;-78
2024/03/09 00:09:53;;;;;;;2.90;1.48;;;12.80;99.90;;;;;;7382440;19;20021;-79
2024/03/09 00:12:22;;;;;;;3.92;1.50;;;12.80;99.90;;;;;;7400009;19;20006;-78
2024/03/09 00:14:51;;;;;;;3.78;1.40;;;12.80;99.90;;;;;;7380877;19;20433;-78
2024/03/09 00:17:21;;;;;;;2.22;1.27;;;12.80;99.90;;;;;;7379477;19;20281;-78
2024/03/09 00:19:53;;;;;;;3.60;1.75;;;12.70;99.90;;;;;;7379778;19;20406;-78
2024/03/09 00:22:22;;;;;;;1.90;1.30;;;12.70;99.90;;;;;;7379628;19;20007;-79
2024/03/09 00:24:50;;;;;;;2.58;1.50;;;12.60;99.90;;;;;;7378955;19;20295;-78
2024/03/09 00:27:24;;;;;;;3.83;1.60;;;12.60;99.90;;;;;;7399933;19;20296;-79
2024/03/09 00:29:54;;;;;;;2.83;1.60;;;12.60;99.90;;;;;;7379191;19;20677;-78
2024/03/09 00:32:24;;;;;;;3.93;1.77;;;12.60;99.90;;;;;;7386663;19;20011;-79
2024/03/09 00:34:55;;;;;;;3.17;1.70;;;12.60;99.90;;;;;;7385747;19;19999;-78
2024/03/09 00:37:24;;;;;;;3.95;2.00;;;12.60;99.90;;;;;;7385410;19;20565;-79
2024/03/09 00:39:52;;;;;;;4.43;1.85;;;12.60;99.90;;;;;;7387215;19;20007;-78
2024/03/09 00:42:21;;;;;;;5.53;1.60;;;12.50;99.90;;;;;;7407858;19;20007;-77
2024/03/09 00:44:50;;;;;;;2.35;1.55;;;12.50;99.90;;;;;;7385035;19;20010;-77
2024/03/09 00:47:21;;;;;;;4.22;1.80;;;12.50;99.90;;;;;;7384582;19;20002;-78
2024/03/09 00:49:49;;;;;;;4.43;1.70;;;12.40;99.90;;;;;;7385529;19;20007;-77
2024/03/09 00:52:21;;;;;;;5.15;2.25;;;12.50;99.90;;;;;;7386874;19;20067;-79
2024/03/09 00:54:49;;;;;;;2.72;1.90;;;12.40;99.90;;;;;;7385951;19;20010;-79
2024/03/09 00:57:18;;;;;;;7.70;2.22;;;12.40;99.90;;;;;;7408843;19;20027;-79
2024/03/09 00:59:47;;;;;;;4.90;1.90;;;12.40;99.90;;;;;;7386107;19;20010;-79
2024/03/09 01:02:16;;;;;;;15.80;1.85;;;12.40;99.90;;;;;;7386494;19;20010;-79
2024/03/09 01:04:45;;;;;;;5.38;2.25;;;12.30;99.90;;;;;;7387791;19;20029;-78
2024/03/09 01:07:13;;;;;;;3.22;1.80;;;12.40;99.90;;;;;;7383159;19;20277;-78
2024/03/09 01:09:48;;;;;;;3.45;1.83;;;12.30;99.90;;;;;;7386036;19;20015;-78
2024/03/09 01:12:17;;;;;;;4.93;2.20;;;12.30;99.90;;;;;;7405973;19;20007;-78
2024/03/09 01:14:48;;;;;;;5.40;1.90;;;12.30;99.90;;;;;;7385028;19;20007;-80
2024/03/09 01:17:21;;;;;;;5.22;2.15;;;12.30;99.90;;;;;;7386269;19;20013;-79
2024/03/09 01:19:50;;;;;;;5.47;2.58;;;12.30;99.90;;;;;;7386379;19;20014;-77
2024/03/09 01:22:19;;;;;;;4.10;2.05;;;12.30;99.90;;;;;;7385438;19;20003;-79
2024/03/09 01:24:52;;;;;;;5.82;2.30;;;12.30;99.90;;;;;;7385989;19;20010;-79
2024/03/09 01:27:21;;;;;;;3.95;2.38;;;12.30;99.90;;;;;;7406929;19;20011;-78
2024/03/09 01:29:54;;;;;;;4.20;2.15;;;12.30;99.90;;;;;;7384418;19;20015;-79
2024/03/09 01:32:23;;;;;;;11.77;2.38;;;12.30;99.90;;;;;;7385072;19;20006;-78
2024/03/09 01:34:52;;;;;;;4.85;2.25;;;12.30;99.90;;;;;;7383936;19;20011;-78
2024/03/09 01:37:22;;;;;;;3.28;2.38;;;12.30;99.90;;;;;;7382669;19;20016;-78
2024/03/09 01:39:56;;;;;;;5.75;2.15;;;12.30;99.90;;;;;;7384504;19;20002;-78
2024/03/09 01:42:26;;;;;;;7.25;2.00;;;12.20;99.90;;;;;;7406285;19;20342;-78
2024/03/09 01:44:55;;;;;;;4.60;2.13;;;12.20;99.90;;;;;;7383047;19;20479;-77
2024/03/09 01:47:26;;;;;;;8.77;2.30;;;12.20;99.90;;;;;;7383253;19;20255;-79
2024/03/09 01:49:56;;;;;;;3.20;2.10;;;12.20;99.90;;;;;;7384556;19;20030;-78
2024/03/09 01:52:31;;;;;;;3.00;2.00;;;12.20;99.90;;;;;;7383136;19;20017;-79
2024/03/09 01:55:06;;;;;;;4.78;2.42;;;12.20;99.90;;;;;;7385576;19;20411;-78
2024/03/09 01:57:35;;;;;;;4.47;2.28;;;12.20;99.90;;;;;;7404440;19;20007;-78
2024/03/09 02:00:08;;;;;;;4.50;2.47;;;12.20;99.90;;;;;;7383233;19;20082;-78
2024/03/09 02:02:37;;;;;;;4.68;2.50;;;12.20;99.90;;;;;;7382837;19;20009;-78
2024/03/09 02:05:10;;;;;;;3.55;2.22;;;12.10;99.90;;;;;;7383683;19;20006;-78
2024/03/09 02:07:40;;;;;;;6.93;2.53;;;12.10;99.90;;;;;;7384674;19;20003;-78
2024/03/09 02:10:14;;;;;;;3.33;1.98;;;12.20;99.90;;;;;;7383624;19;20338;-79
2024/03/09 02:12:42;;;;;;;2.67;1.85;;;12.10;99.90;;;;;;7393161;19;20054;-79
2024/03/09 02:15:16;;;;;;;4.28;2.40;;;12.20;99.90;;;;;;7403282;19;20440;-79
2024/03/09 02:17:47;;;;;;;3.30;2.20;;;12.10;99.90;;;;;;7383086;19;20011;-79
2024/03/09 02:20:16;;;;;;;5.18;2.75;;;12.10;99.90;;;;;;7384372;19;20075;-78
2024/03/09 02:22:46;;;;;;;5.60;2.60;;;12.20;99.90;;;;;;7382046;19;20362;-78
2024/03/09 02:25:18;;;;;;;5.97;2.53;;;12.20;99.90;;;;;;7384241;19;20011;-79
2024/03/09 02:27:47;;;;;;;4.28;1.90;;;12.10;99.90;;;;;;7382706;19;20007;-79
2024/03/09 02:30:16;;;;;;;4.28;2.08;;;12.10;99.90;;;;;;7404516;19;20007;-77
2024/03/09 02:32:45;;;;;;;3.22;2.05;;;12.10;99.90;;;;;;7388646;19;20010;-79
2024/03/09 02:35:14;;;;;;;4.47;1.98;;;12.10;99.90;;;;;;7389702;19;20043;-78
2024/03/09 02:37:45;;;;;;;8.20;2.40;;;12.10;99.90;;;;;;7390180;19;20003;-78
2024/03/09 02:40:18;;;;;;;4.55;2.03;;;12.10;99.90;;;;;;7389858;19;20009;-79
2024/03/09 02:45:28;;;;;;;4.68;2.00;;;12.10;99.90;;;;;;7406995;19;20014;-78
2024/03/09 02:47:58;;;;;;;2.97;1.48;;;12.10;99.90;;;;;;7383253;19;20354;-78
2024/03/09 02:50:27;;;;;;;4.18;1.92;;;12.10;99.90;;;;;;7382964;19;20002;-79
2024/03/09 02:52:57;;;;;;;3.28;1.60;;;12.10;99.90;;;;;;7384358;19;20003;-79
2024/03/09 02:55:29;;;;;;;4.18;1.55;;;12.10;99.90;;;;;;7383597;19;19998;-79
2024/03/09 02:57:58;;;;;;;3.92;1.77;;;12.00;99.90;;;;;;7384350;19;20042;-79
2024/03/09 03:00:28;;;;;;;3.75;1.80;;;12.10;99.90;;;;;;7406742;19;20011;-78
2024/03/09 03:05:44;;;;;;;2.50;1.90;;;12.00;99.90;;;;;;7381853;19;20262;-78
2024/03/09 03:08:14;;;;;;;2.38;1.80;;;12.00;99.90;;;;;;7380437;19;20401;-78
2024/03/09 03:10:46;;;;;;;3.17;1.63;;;12.00;99.90;;;;;;7381196;19;20007;-79
2024/03/09 03:13:16;;;;;;;2.20;1.60;;;12.00;99.90;;;;;;7381706;19;20002;-79
2024/03/09 03:15:45;;;;;;;5.60;2.13;;;12.00;99.90;;;;;;7381822;19;20073;-78
2024/03/09 03:18:14;;;;;;;3.03;1.98;;;12.00;99.90;;;;;;7401505;19;20007;-78
2024/03/09 03:20:43;;;;;;;2.58;1.92;;;12.00;99.90;;;;;;7379967;19;20283;-77
2024/03/09 03:23:12;;;;;;;2.65;1.85;;;12.00;99.90;;;;;;7379790;19;20044;-78
2024/03/09 03:25:41;;;;;;;4.07;2.15;;;12.00;99.90;;;;;;7379974;19;20007;-78
2024/03/09 03:28:12;;;;;;;5.30;2.30;;;12.00;99.90;;;;;;7379783;19;20068;-78
2024/03/09 03:30:41;;;;;;;5.20;2.28;;;12.00;99.90;;;;;;7401196;19;20018;-79
2024/03/09 03:33:10;;;;;;;2.95;2.28;;;12.00;99.90;;;;;;7380077;19;20019;-78
2024/03/09 03:35:36;;;;;;;4.78;2.72;;;12.00;99.90;;;;;;7378034;19;20014;-77
2024/03/09 03:38:05;;;;;;;5.55;2.45;;;12.00;99.90;;;;;;7379199;19;20236;-78
2024/03/09 03:40:34;;;;;;;7.45;2.22;;;12.00;99.90;;;;;;7378952;19;20002;-77
2024/03/09 03:43:03;;;;;;;4.75;2.13;;;11.90;99.90;;;;;;7381056;19;20007;-78
2024/03/09 03:45:36;;;;;;;4.45;2.20;;;11.90;99.90;;;;;;7401954;19;20235;-77
2024/03/09 03:48:08;;;;;;;3.97;2.42;;;11.80;99.90;;;;;;7379307;19;20389;-79
2024/03/09 03:50:36;;;;;;;;;;;11.80;99.90;;;;;;7378731;19;20030;-77
2024/03/09 03:53:05;;;;;;;4.53;2.03;;;11.90;99.90;;;;;;7377856;19;19967;-78
2024/03/09 03:55:34;;;;;;;4.90;1.98;;;11.80;99.90;;;;;;7380225;19;20086;-78
2024/03/09 03:58:04;;;;;;;2.50;2.03;;;11.80;99.90;;;;;;7379751;19;20017;-78
2024/03/09 04:00:37;;;;;;;4.05;2.28;;;11.70;99.90;;;;;;7400498;19;20370;-78
2024/03/09 04:03:06;;;;;;;5.18;2.17;;;11.70;99.90;;;;;;7379063;19;20003;-78
2024/03/09 04:05:35;;;;;;;4.18;2.45;;;11.70;99.90;;;;;;7379546;19;20002;-78
2024/03/09 04:08:06;;;;;;;10.63;2.65;;;11.70;99.90;;;;;;7386721;19;20006;-78
2024/03/09 04:10:35;;;;;;;;;;;11.70;99.90;;;;;;7385361;19;20010;-78
2024/03/09 04:13:05;;;;;;;2.63;1.95;;;11.70;99.90;;;;;;7385674;19;19906;-78
2024/03/09 04:15:34;;;;;;;4.32;2.50;;;11.60;99.90;;;;;;7407762;19;20065;-78
2024/03/09 04:18:05;;;;;;;4.40;2.13;;;11.60;99.90;;;;;;7386782;19;20014;-79
2024/03/09 04:20:34;;;;;;;;;;;11.50;99.90;;;;;;7387385;19;20003;-78
2024/03/09 04:23:07;;;;;;;4.55;2.20;;;11.50;99.90;;;;;;7387622;19;19968;-79
2024/03/09 04:25:36;;;;;;;3.30;1.88;;;11.50;99.90;;;;;;7386621;19;20393;-77
2024/03/09 04:28:05;;;;;;;3.45;2.15;;;11.40;99.90;;;;;;7385046;19;20011;-78
2024/03/09 04:30:36;;;;;;;4.38;2.25;;;11.40;99.90;;;;;;7405262;19;20045;-78
2024/03/09 04:33:08;;;;;;;2.88;2.17;;;11.40;99.90;;;;;;7385260;19;20007;-78
2024/03/09 04:35:37;;;;;;;4.68;2.15;;;11.40;99.90;;;;;;7384639;19;20228;-78
2024/03/09 04:38:07;;;;;;;2.10;1.77;;;11.30;99.90;;;;;;7386144;19;20503;-78
2024/03/09 04:40:37;;;;;;;10.10;2.40;;;11.30;99.90;;;;;;7385413;19;20093;-78
2024/03/09 04:43:07;;;;;;;4.78;2.40;;;11.30;99.90;;;;;;7384135;19;20032;-78
2024/03/09 04:45:36;;;;;;;5.60;2.53;;;11.30;99.90;;;;;;7408270;19;20007;-79
2024/03/09 04:48:09;;;;;;;7.28;2.42;;;11.30;99.90;;;;;;7387250;19;20017;-78
2024/03/09 04:50:38;;;;;;;5.57;2.90;;;11.20;99.90;;;;;;7385896;19;20006;-78
2024/03/09 04:53:08;;;;;;;4.50;2.60;;;11.20;99.90;;;;;;7386290;19;20038;-78
2024/03/09 04:55:38;;;;;;;4.53;2.50;;;11.20;99.90;;;;;;7383685;19;20006;-78
2024/03/09 04:58:13;;;;;;;9.95;2.55;;;11.20;99.90;;;;;;7386333;19;20020;-78
2024/03/09 05:00:42;;;;;;;5.50;2.90;;;11.20;99.90;;;;;;7407699;19;20021;-78
2024/03/09 05:03:16;;;;;;;4.93;2.40;;;11.20;99.90;;;;;;7383206;19;20027;-78
2024/03/09 05:05:45;;;;;;;2.92;2.00;;;11.10;99.90;;;;;;7384701;19;20294;-78
2024/03/09 05:08:14;;;;;;;3.65;2.65;;;11.10;99.90;;;;;;7385502;19;20027;-78
2024/03/09 05:10:42;;;;;;;3.25;2.33;;;11.10;99.90;;;;;;7385148;19;20020;-78
2024/03/09 05:13:11;;;;;;;3.72;2.60;;;11.10;99.90;;;;;;7391896;19;20010;-77
2024/03/09 05:15:40;;;;;;;5.60;2.97;;;11.10;99.90;;;;;;7420672;19;20006;-77
2024/03/09 05:18:11;;;;;;;5.07;2.47;;;11.10;99.90;;;;;;7400246;19;20007;-77
2024/03/09 05:20:42;;;;;;;5.35;2.67;;;11.00;99.90;;;;;;7403504;19;20015;-77
2024/03/09 05:23:11;;;;;;;;;;;11.00;99.90;;;;;;7404257;19;20010;-76
2024/03/09 05:25:40;;;;;;;3.50;2.10;;;11.10;99.90;;;;;;7393621;19;19914;-77
2024/03/09 05:28:12;;;;;;;5.40;2.50;;;11.00;99.90;;;;;;7385812;19;20070;-77
2024/03/09 05:30:41;;;;;;;4.13;2.30;;;10.90;99.90;;;;;;7404023;19;20247;-78
2024/03/09 05:33:11;;;;;;;4.68;2.28;;;10.90;99.90;;;;;;7383999;19;20004;-78
2024/03/09 05:35:43;;;;;;;5.53;2.00;;;10.90;99.90;;;;;;7382883;19;20013;-77
2024/03/09 05:38:12;;;;;;;8.57;2.25;;;10.90;99.90;;;;;;7382542;19;19999;-76
2024/03/09 05:40:42;;;;;;;9.32;2.13;;;10.90;99.90;;;;;;7382376;19;20003;-77
2024/03/09 05:43:11;;;;;;;4.10;2.38;;;11.00;99.90;;;;;;7384205;19;20078;-77
2024/03/09 05:45:41;;;;;;;6.35;2.38;;;11.00;99.90;;;;;;7406229;19;20011;-78
2024/03/09 05:48:10;;;;;;;2.17;1.80;;;11.00;99.90;;;;;;7384907;19;20010;-79
2024/03/09 05:50:42;;;;;;;4.85;1.85;;;11.00;99.90;;;;;;7385238;19;20006;-79
2024/03/09 05:53:11;;;;;;;2.30;1.98;;;11.00;99.90;;;;;;7384612;19;20255;-78
2024/03/09 05:55:39;;;;;;;3.40;2.15;;;11.00;99.90;;;;;;7385598;19;20072;-77
2024/03/09 05:58:09;;;;;;;9.50;2.38;;;11.00;99.90;;;;;;7385799;19;20019;-78
2024/03/09 06:00:38;;;;;;;4.55;2.40;;;11.00;99.90;;;;;;7406994;19;20071;-79
2024/03/09 06:03:07;;;;;;;3.35;2.30;;;11.10;99.90;;;;;;7384614;19;20400;-78
2024/03/09 06:05:35;;;;;;;8.13;2.40;;;11.00;99.90;;;;;;7384569;19;20271;-79
2024/03/09 06:08:08;;;;;;;2.95;2.28;;;11.00;99.90;;;;;;7387431;19;20247;-78
2024/03/09 06:10:36;;;;;;;5.30;2.55;;;11.00;99.90;;;;;;7382379;19;20391;-77
2024/03/09 06:13:06;;;;;;;6.50;3.00;;;11.00;99.90;;;;;;7383661;19;20018;-78
2024/03/09 06:15:34;;;;;;;5.30;2.72;;;11.00;99.90;;;;;;7405084;19;20113;-78
2024/03/09 06:18:05;;;;;;;4.95;2.50;;;11.00;99.90;;;;;;7381766;19;20394;-78
2024/03/09 06:20:34;;;;;;;6.28;3.20;;;11.00;99.90;;;;;;7382174;19;20005;-77
2024/03/09 06:23:03;;;;;;;4.57;2.75;;;11.10;99.90;;;;;;7382359;19;20015;-78
2024/03/09 06:25:35;;;;;;;5.97;3.33;;;11.10;99.90;;;;;;7382397;19;20006;-78
2024/03/09 06:28:07;;;;;;;4.50;2.70;;;11.10;99.90;;;;;;7381829;19;20011;-78
2024/03/09 06:30:39;;;;;;;3.95;2.45;;;11.10;99.90;;;;;;7400125;19;20007;-77
2024/03/09 06:33:08;;;;;;;8.40;2.88;;;11.10;99.90;;;;;;7381638;19;20002;-77
2024/03/09 06:35:36;;;;;;;8.23;2.60;;;11.20;99.90;;;;;;7380444;19;20010;-78
2024/03/09 06:38:07;;;;;;;9.55;3.50;;;11.20;99.90;;;;;;7382657;19;20007;-77
2024/03/09 06:40:41;;;;;;;4.82;2.60;;;11.20;99.90;;;;;;7381847;19;20216;-78
2024/03/09 06:43:11;;;;;;;5.78;3.25;;;11.20;99.90;;;;;;7381888;19;20006;-77
2024/03/09 06:45:42;;;;;;;7.18;3.53;;;11.30;99.90;;;;;;7403647;19;20011;-77
2024/03/09 06:48:11;;;;;;;8.50;3.30;;;11.30;99.90;;;;;;7380853;19;20026;-78
2024/03/09 06:50:44;;;;;;;6.28;3.17;;;11.30;99.90;;;;;;7382618;19;20020;-77
2024/03/09 06:53:13;;;;;;;16.13;3.13;;;11.30;99.90;;;;;;7381813;19;20254;-78
2024/03/09 06:55:44;;;;;;;7.20;3.25;;;11.30;99.90;;;;;;7381868;19;20295;-77
2024/03/09 06:58:13;;;;;;;6.22;2.75;;;11.30;99.90;;;;;;7380950;19;20020;-78
2024/03/09 07:00:42;;;;;;;5.70;2.95;;;11.30;99.90;;;;;;7402304;19;20027;-77
2024/03/09 07:03:10;;;;;;;4.10;2.72;;;11.40;99.90;;;;;;7380810;19;20007;-77
2024/03/09 07:05:40;;;;;;;8.13;3.00;;;11.40;99.90;;;;;;7381811;19;20003;-79
2024/03/09 07:08:15;;;;;;;8.52;2.88;;;11.50;99.90;;;;;;7381711;19;20006;-79
2024/03/09 07:10:47;;;;;;;5.00;2.78;;;11.50;99.90;;;;;;7379287;19;20222;-78
2024/03/09 07:13:18;;;;;;;4.13;2.75;;;11.50;99.90;;;;;;7381492;19;20377;-77
2024/03/09 07:15:47;;;;;;;;;;;11.60;99.90;;;;;;7404393;19;20522;-78
2024/03/09 07:18:16;;;;;;;5.90;2.53;;;11.60;99.90;;;;;;7383059;19;19907;-79
2024/03/09 07:20:45;;;;;;;5.45;2.53;;;11.70;99.90;;;;;;7383155;19;20027;-78
2024/03/09 07:23:14;;;;;;;10.88;3.13;;;11.70;99.90;;;;;;7382484;19;20007;-78
2024/03/09 07:25:46;;;;;;;5.72;2.75;;;11.70;99.90;;;;;;7382440;19;20013;-78
2024/03/09 07:28:14;;;;;;;6.18;2.65;;;11.70;99.90;;;;;;7381520;19;20031;-78
2024/03/09 07:30:43;;;;;;;5.43;2.72;;;11.80;99.90;;;;;;7402148;19;20048;-78
2024/03/09 07:33:12;;;;;;;4.15;2.60;;;11.80;99.90;;;;;;7384498;19;20055;-78
2024/03/09 07:35:43;;;;;;;5.78;2.85;;;11.90;99.90;;;;;;7384180;19;20015;-79
2024/03/09 07:38:11;;;;;;;5.17;2.67;;;11.90;99.90;;;;;;7380943;19;20015;-79
2024/03/09 07:40:43;;;;;;;6.07;2.38;;;12.00;99.90;;;;;;7384230;19;20020;-77
2024/03/09 07:43:17;;;;;;;3.58;2.45;;;12.00;99.90;;;;;;7385301;19;20382;-78
2024/03/09 07:45:46;;;;;;;7.97;2.30;;;12.10;99.90;;;;;;7409770;19;20011;-78
2024/03/09 07:48:16;;;;;;;5.18;2.92;;;12.10;99.90;;;;;;7388246;19;20357;-79
2024/03/09 07:50:48;;;;;;;5.82;2.33;;;12.10;99.90;;;;;;7386403;19;20009;-78
2024/03/09 07:53:14;;;;;;;3.80;2.35;;;12.20;99.90;;;;;;7392185;19;20010;-78
2024/03/09 07:55:43;;;;;;;10.05;2.28;;;12.30;99.90;;;;;;7399008;19;20064;-78
2024/03/09 07:58:14;;;;;;;5.57;2.38;;;12.30;99.90;;;;;;7396354;19;20684;-78
2024/03/09 08:00:44;;;;;;;5.20;2.20;;;12.40;99.90;;;;;;7414259;19;20010;-77
2024/03/09 08:03:12;;;;;;;4.13;2.03;;;12.40;99.90;;;;;;7393138;19;20293;-78
2024/03/09 08:05:41;;;;;;;3.05;1.98;;;12.50;99.90;;;;;;7393461;19;20007;-77
2024/03/09 08:08:12;;;;;;;3.38;1.63;;;12.50;99.90;;;;;;7389721;19;20006;-77
2024/03/09 08:10:46;;;;;;;3.08;1.50;;;12.50;99.90;;;;;;7383899;19;20099;-79
2024/03/09 08:13:19;;;;;;;2.00;1.75;;;12.50;99.90;;;;;;7387300;19;20079;-78
2024/03/09 08:15:48;;;;;;;4.45;2.15;;;12.50;99.90;;;;;;7406884;19;20020;-79
2024/03/09 08:18:18;;;;;;;3.95;1.70;;;12.50;99.90;;;;;;7386670;19;20023;-79
2024/03/09 08:20:47;;;;;;;2.33;1.80;;;12.60;99.90;;;;;;7384874;19;20346;-78
2024/03/09 08:23:17;;;;;;;5.80;1.75;;;12.60;99.90;;;;;;7384776;19;20308;-79
2024/03/09 08:25:45;;;;;;;3.65;1.80;;;12.60;99.90;;;;;;7385332;19;20066;-78
2024/03/09 08:28:20;;;;;;;3.15;1.50;;;12.60;99.90;;;;;;7386609;19;20006;-78
2024/03/09 08:30:48;;;;;;;6.47;1.80;;;12.60;99.90;;;;;;7405145;19;20389;-78
2024/03/09 08:33:17;;;;;;;6.05;1.73;;;12.70;99.90;;;;;;7383466;19;20022;-79
2024/03/09 08:35:46;;;;;;;4.90;1.48;;;12.70;99.90;;;;;;7380753;19;20106;-77
2024/03/09 08:38:13;;;;;;;2.85;1.48;;;12.70;99.90;;;;;;7381840;19;20023;-78
2024/03/09 08:40:42;;;;;;;5.65;1.63;;;12.80;99.90;;;;;;7383212;19;20279;-79
2024/03/09 08:43:11;;;;;;;5.43;1.63;;;12.70;99.90;;;;;;7382523;19;20089;-78
2024/03/09 08:45:50;;;;;;;3.83;1.63;;;12.80;99.90;;;;;;7404355;19;20006;-79
2024/03/09 08:48:19;;;;;;;5.13;1.67;;;12.80;99.90;;;;;;7382663;19;20003;-79
2024/03/09 08:50:47;;;;;;;2.55;1.70;;;12.80;99.90;;;;;;7381798;19;20026;-79
2024/03/09 08:53:17;;;;;;;3.83;1.52;;;12.90;99.90;;;;;;7381722;19;20015;-79
2024/03/09 08:55:48;;;;;;;1.77;1.30;;;12.90;99.90;;;;;;7382872;19;20015;-80
2024/03/09 08:58:17;;;;;;;4.00;1.40;;;13.00;99.90;;;;;;7382221;19;20474;-79
2024/03/09 09:00:48;;;;;;;3.28;1.45;;;13.10;99.90;;;;;;7404603;19;20015;-78
2024/03/09 09:03:17;;;;;;;3.22;1.80;;;13.10;99.90;;;;;;7382652;19;20007;-78
2024/03/09 09:05:46;;;;;;;3.90;1.42;;;13.20;99.90;;;;;;7383403;19;20062;-79
2024/03/09 09:08:24;;;;;;;4.18;1.52;;;13.30;99.90;;;;;;7383246;19;20019;-79
2024/03/09 09:10:53;;;;;;;2.72;1.40;;;13.40;99.90;;;;;;7386387;19;20003;-79
2024/03/09 09:13:23;;;;;;;5.35;1.63;;;13.40;99.90;;;;;;7387009;19;20015;-78
2024/03/09 09:15:54;;;;;;;5.55;1.83;;;13.40;99.90;;;;;;7409002;19;20071;-78
2024/03/09 09:18:23;;;;;;;;;;;13.50;99.90;;;;;;7382808;19;20016;-79
2024/03/09 09:20:52;;;;;;;4.80;1.27;;;13.50;99.90;;;;;;7382091;19;19935;-79
2024/03/09 09:23:21;;;;;;;5.10;1.63;;;13.50;99.90;;;;;;7383993;19;20003;-79
2024/03/09 09:25:49;;;;;;;5.70;1.70;;;13.60;99.90;;;;;;7385716;19;20110;-79
2024/03/09 09:28:19;;;;;;;22.52;1.95;;;13.60;99.90;;;;;;7385435;19;20857;-77
2024/03/09 09:30:49;;;;;;;6.30;1.77;;;13.70;99.90;;;;;;7403845;19;20007;-79
2024/03/09 09:33:21;;;;;;;9.77;1.08;;;13.80;99.90;;;;;;7380494;19;20014;-78
2024/03/09 09:35:53;;;;;;;2.58;1.52;;;13.80;99.90;;;;;;7379496;19;20066;-78
2024/03/09 09:38:22;;;;;;;2.65;1.20;;;13.80;99.90;;;;;;7380127;19;20020;-79
2024/03/09 09:40:52;;;;;;;2.80;1.40;;;13.80;99.90;;;;;;7380570;19;20024;-78
2024/03/09 09:43:21;;;;;;;3.53;1.27;;;13.90;99.90;;;;;;7380360;19;20036;-78
2024/03/09 09:45:53;;;;;;;4.15;1.70;;;13.80;99.90;;;;;;7399967;19;20023;-78
2024/03/09 09:48:26;;;;;;;5.88;1.70;;;13.90;99.90;;;;;;7380809;19;20043;-78
2024/03/09 09:50:56;;;;;;;4.25;1.60;;;13.90;99.90;;;;;;7378518;19;20014;-79
2024/03/09 09:53:25;;;;;;;3.63;1.52;;;14.00;99.90;;;;;;7380187;19;20018;-78
2024/03/09 09:55:53;;;;;;;6.57;1.50;;;13.90;99.90;;;;;;7379533;19;20014;-78
2024/03/09 09:58:22;;;;;;;6.05;1.60;;;13.90;99.90;;;;;;7379964;19;20019;-77
2024/03/09 10:00:53;;;;;;;2.55;1.50;;;14.00;99.90;;;;;;7401319;19;20011;-78
2024/03/09 10:03:27;;;;;;;6.38;1.60;;;14.00;99.90;;;;;;7378502;19;20005;-77
2024/03/09 10:05:57;;;;;;;3.53;1.40;;;14.10;99.90;;;;;;7376880;19;20007;-76
2024/03/09 10:08:27;;;;;;;2.55;1.27;;;14.10;99.90;;;;;;7377081;19;20705;-76
2024/03/09 10:11:00;;;;;;;9.02;1.38;;;14.10;99.90;;;;;;7379393;19;19998;-78
2024/03/09 10:13:29;;;;;;;19.25;7.78;;;14.20;99.90;;;;;;7377927;19;20011;-74
2024/03/09 10:16:06;;;;;;;23.88;9.68;;;14.20;99.90;;;;;;7400739;19;20003;-77
2024/03/09 10:18:44;;;;;;;18.83;9.32;;;14.20;99.90;;;;;;7381808;19;20002;-81
2024/03/09 10:21:14;;;;;;;7.85;3.28;;;14.20;99.90;;;;;;7380767;19;20016;-76
2024/03/09 10:23:44;;;;;;;5.63;2.75;;;14.30;99.90;;;;;;7378975;19;20400;-80
2024/03/09 10:26:13;;;;;;;355.17;176.10;;;14.30;99.90;;;;;;7380595;19;20090;-79
2024/03/09 10:28:42;;;;;;;26.20;12.10;;;14.30;99.90;;;;;;7379934;19;20042;-76
2024/03/09 10:31:12;;;;;;;8.07;3.80;;;14.40;99.90;;;;;;7377516;19;20015;-77
2024/03/09 10:33:44;;;;;;;6.32;2.85;;;14.40;99.90;;;;;;7400165;19;20006;-76
2024/03/09 10:36:15;;;;;;;6.07;3.00;;;14.40;99.90;;;;;;7382601;19;20019;-76
2024/03/09 10:38:44;;;;;;;;;;;14.40;99.90;;;;;;7384357;19;20030;-76
2024/03/09 10:41:14;;;;;;;6.65;2.08;;;14.50;99.90;;;;;;7378462;19;20181;-77
2024/03/09 10:43:44;;;;;;;9.95;2.40;;;14.50;99.90;;;;;;7384566;19;20006;-77
2024/03/09 10:46:18;;;;;;;5.13;2.22;;;14.60;99.90;;;;;;7380931;19;20022;-77
2024/03/09 10:48:51;;;;;;;8.75;2.67;;;14.70;99.90;;;;;;7404638;19;20010;-78
2024/03/09 10:51:39;;;;;;;3.97;1.20;;;14.70;99.90;;;;;;7377717;19;20072;-79
2024/03/09 10:54:23;;;;;;;3.42;1.10;;;14.70;99.90;;;;;;7378892;19;20012;-84
2024/03/09 10:56:52;;;;;;;4.30;1.60;;;14.80;99.90;;;;;;7380073;19;19999;-78
2024/03/09 10:59:25;;;;;;;5.80;2.00;;;14.80;99.90;;;;;;7377133;19;20256;-79
2024/03/09 11:01:54;;;;;;;5.50;1.58;;;14.90;99.90;;;;;;7378694;19;20007;-78
2024/03/09 11:04:27;;;;;;;6.43;1.27;;;14.90;99.90;;;;;;7378754;19;20023;-79
2024/03/09 11:06:56;;;;;;;3.72;1.52;;;14.90;99.90;;;;;;7401454;19;20002;-77
2024/03/09 11:09:29;;;;;;;3.35;1.17;;;15.00;99.90;;;;;;7378507;19;20035;-76
2024/03/09 11:11:59;;;;;;;2.00;1.45;;;15.00;99.90;;;;;;7376572;19;20017;-78
2024/03/09 11:14:28;;;;;;;2.80;1.02;;;15.10;99.90;;;;;;7380327;19;20031;-78
2024/03/09 11:17:00;;;;;;;3.67;1.30;;;15.20;99.90;;;;;;7378095;19;20055;-78
2024/03/09 11:19:43;;;;;;;;;;;;;;;;;;;;;
2024/03/09 11:22:33;;;;;;;3.10;1.08;;;15.30;99.90;;;;;;7387565;19;20078;-79
2024/03/09 11:25:57;;;;;;;2.70;1.15;;;15.40;99.90;;;;;;7403623;19;20207;-82
2024/03/09 11:28:55;;;;;;;4.35;1.40;;;15.40;99.90;;;;;;7268062;19;2004278;-81
2024/03/09 11:31:33;;;;;;;3.28;1.27;;;15.40;99.90;;;;;;7377754;19;20242;-78
2024/03/09 11:34:16;;;;;;;4.07;0.95;;;15.40;99.90;;;;;;7398297;19;20020;-80
2024/03/09 11:39:47;;;;;;;3.30;1.30;;;15.50;99.90;;;;;;7378113;19;20020;-82
2024/03/09 11:42:18;;;;;;;3.65;1.25;;;15.50;99.90;;;;;;7399547;19;20076;-80
2024/03/09 11:44:47;;;;;;;2.58;1.00;;;15.50;99.90;;;;;;7378027;19;20376;-79
2024/03/09 11:47:16;;;;;;;3.15;1.08;;;15.60;99.90;;;;;;7378633;19;20413;-79
2024/03/09 11:49:45;;;;;;;2.42;1.00;;;15.40;99.90;;;;;;7378949;19;20025;-80
2024/03/09 11:52:15;;;;;;;4.07;1.02;;;15.40;99.90;;;;;;7376963;19;20025;-79
2024/03/09 11:54:45;;;;;;;2.53;1.00;;;15.50;99.90;;;;;;7400313;19;20641;-81
2024/03/09 11:57:16;;;;;;;8.98;1.30;;;15.60;99.90;;;;;;7379718;19;20017;-80
2024/03/09 11:59:46;;;;;;;;;;;15.60;99.90;;;;;;7380360;19;20003;-78
2024/03/09 12:02:15;;;;;;;2.75;1.17;;;15.50;99.90;;;;;;7379680;19;19911;-79
2024/03/09 12:04:46;;;;;;;3.38;1.42;;;15.60;99.90;;;;;;7380628;19;19999;-79
2024/03/09 12:07:15;;;;;;;3.70;1.30;;;15.70;99.90;;;;;;7379637;19;20011;-79
2024/03/09 12:09:44;;;;;;;2.20;1.23;;;15.60;99.90;;;;;;7400109;19;20007;-79
2024/03/09 12:12:17;;;;;;;5.07;1.33;;;15.70;99.90;;;;;;7377780;19;20034;-79
2024/03/09 12:14:46;;;;;;;5.53;1.05;;;15.70;99.90;;;;;;7380592;19;20014;-80
2024/03/09 12:17:15;;;;;;;4.95;1.17;;;15.80;99.90;;;;;;7382135;19;20014;-80
2024/03/09 12:19:47;;;;;;;6.93;1.38;;;15.80;99.90;;;;;;7378735;19;19998;-80
2024/03/09 12:22:16;;;;;;;3.55;1.35;;;15.70;99.90;;;;;;7379787;19;20019;-80
2024/03/09 12:24:46;;;;;;;3.85;1.42;;;15.80;99.90;;;;;;7401428;19;20014;-79
2024/03/09 12:27:20;;;;;;;3.42;1.30;;;15.80;99.90;;;;;;7385777;19;20011;-81
2024/03/09 12:29:49;;;;;;;6.63;1.52;;;15.80;99.90;;;;;;7384348;19;20006;-79
2024/03/09 12:32:19;;;;;;;2.55;1.55;;;15.60;99.90;;;;;;7383372;19;20014;-79
2024/03/09 12:34:50;;;;;;;9.52;1.40;;;15.60;99.90;;;;;;7384964;19;20031;-79
2024/03/09 12:37:27;;;;;;;4.03;1.57;;;15.40;99.90;;;;;;7383126;19;20010;-80
2024/03/09 12:40:17;;;;;;;4.20;1.58;;;15.40;99.90;;;;;;7403540;19;20255;-79
2024/03/09 12:42:53;;;;;;;5.83;1.53;;;15.40;99.90;;;;;;7383572;19;20280;-80
2024/03/09 12:45:23;;;;;;;5.75;1.08;;;15.30;99.90;;;;;;7383984;19;20075;-80
2024/03/09 12:47:55;;;;;;;3.88;1.58;;;15.30;99.90;;;;;;7383252;19;20372;-79
2024/03/09 12:50:25;;;;;;;4.82;1.60;;;15.30;99.90;;;;;;7388592;19;20015;-80
2024/03/09 12:52:54;;;;;;;7.15;1.48;;;15.30;99.90;;;;;;7386863;19;20010;-80
2024/03/09 12:55:28;;;;;;;5.85;1.80;;;15.30;99.90;;;;;;7383368;19;20068;-79
2024/03/09 12:58:00;;;;;;;5.82;1.58;;;15.30;99.90;;;;;;7409239;19;20194;-78
2024/03/09 13:00:33;;;;;;;4.03;1.52;;;15.30;99.90;;;;;;7387681;19;20006;-80
2024/03/09 13:03:04;;;;;;;4.32;1.50;;;15.30;99.90;;;;;;7385384;19;20013;-80
2024/03/09 13:05:33;;;;;;;;;;;15.30;99.90;;;;;;7386708;19;20074;-80
2024/03/09 13:08:07;;;;;;;6.90;1.45;;;15.40;99.90;;;;;;7384975;19;19915;-80
2024/03/09 13:10:36;;;;;;;3.97;1.30;;;15.40;99.90;;;;;;7383637;19;20389;-79
2024/03/09 13:13:13;;;;;;;5.43;1.50;;;15.50;99.90;;;;;;7407220;19;20034;-80
2024/03/09 13:15:44;;;;;;;5.38;1.75;;;15.50;99.90;;;;;;7387357;19;20021;-80
2024/03/09 13:18:17;;;;;;;2.60;1.23;;;15.60;99.90;;;;;;7389350;19;20010;-79